AirNav   Everest Fuels
 
 1086 users online  

3I4 Richwood Municipal Airport
Richwood, West Virginia, USA

GOING TO RICHWOOD?


FAA INFORMATION EFFECTIVE 02 DECEMBER 2021

Location

FAA Identifier: 3I4
Lat/Long: 38-15-30.2000N 080-39-04.8000W
38-15.503333N 080-39.080000W
38.2583889,-80.6513333
(estimated)
Elevation: 2486 ft. / 757.7 m (surveyed)
Variation: 06W (1985)
From city: 6 miles W of RICHWOOD, WV
Time zone: UTC -5 (UTC -4 during Daylight Saving Time)
Zip code: 26202

Airport Operations

Airport use: Open to the public
Activation date: 01/1960
Control tower: no
ARTCC: WASHINGTON CENTER
FSS: ELKINS FLIGHT SERVICE STATION [703-724-4288]
NOTAMs facility: EKN (NOTAM-D service available)
Attendance: UNATNDD
Wind indicator: yes
Segmented circle: no

Airport Communications

CTAF: 122.9

Nearby radio navigation aids

VOR radial/distance  VOR name  Freq  Var
RNLr027/(18.5)RAINELLE VOR116.6004W
BKWr044/36.3BECKLEY VOR/DME117.7006W

Airport Services

Parking: tiedowns
Bottled oxygen: NONE
Bulk oxygen: NONE

Runway Information

Runway 10/28

Dimensions: 3360 x 60 ft. / 1024 x 18 m
Surface: asphalt, in fair condition
SOFT SHOULDERS.
Runway edge markings: RY 10/28 NUMBERS AND CNTRLN NON-STANDARD SIZE AND FADED.
RUNWAY 10  RUNWAY 28
Latitude: 38-15.531975N38-15.473707N
Longitude: 080-39.428585W080-38.730232W
Elevation: 2416.0 ft.2486.0 ft.
Traffic pattern: leftleft
Runway heading: 102 magnetic, 096 true282 magnetic, 276 true
Markings: NSTD, in fair conditionNSTD, in fair condition
Obstructions: 18 ft. other, 222 ft. from runway, 60 ft. right of centerline, 1:1 slope to clear
30 FT TREES 0-200 FT FM THRESHOLD, 0-125 FT FM CENTERLINE BOTH SIDES.
70 ft. trees, 275 ft. from runway, 140 ft. left and right of centerline, 1:1 slope to clear
RY 28 10 FT GND 30-300 FT DSTC.

Airport Ownership and Management from official FAA records

Ownership: Publicly-owned
Owner: CITY OF RICHWOOD
6 WHITE AVE
RICHWOOD, WV 26261
Phone 304-846-2596
GARY JOHNSON, MAYOR 304-562-4379; GARYJONHSONMAYOR@GMAIL.COM.
Manager: BOB STARCHER AND DORSEY KELLEY
6 WHITE AVE
RICHWOOD, WV 26261
Phone 304-846-2744
AFTR HRS 304-846-6650 OR 304-573-5964 (AMGR CELL) FOR ARPT ACCESS.

Airport Operational Statistics

Aircraft based on the field: 4
Single engine airplanes: 4
    
Aircraft operations: 200/year *
50% transient general aviation
50% local general aviation
* for 12-month period ending 25 August 2020

Additional Remarks

RWY 10/28 NO SNOW REMOVAL. RWY FREQUENTLY SNOW COVERED WINTER MONTHS.
DEER & BIRDS ON & INVOF ARPT.
ARPT CLSD NIGHTS.
PARALLEL TWY CLSD OCT-APR.
ARPT PHYS. ADDR. 3437 AIRPORT RD. RICHWOOD, WV.
FOR CD CTC WASHINGTON ARTCC AT 703-771-3587.

Instrument Procedures

There are no published instrument procedures at 3I4.

Some nearby airports with instrument procedures:

KSXL - Summersville Airport (10 nm W)
48I - Braxton County Airport (26 nm N)
KLWB - Greenbrier Valley Airport (27 nm SE)
KBKW - Raleigh County Memorial Airport (36 nm SW)
KHSP - Ingalls Field Airport (43 nm SE)
 
Loc | Ops | Rwys | IFR | FBO | Links
Com | Nav | Svcs | Stats | Notes
Area around 3I4 (Richwood Municipal Airport)
 
Road maps at: MapQuest Bing Google
 
Aerial photo
WARNING: Photo may not be current or correct
Aerial photo of 3I4 (Richwood Municipal Airport)
Photo taken 23-May-2009
looking northeast.

Do you have a better or more recent aerial photo of Richwood Municipal Airport that you would like to share? If so, please send us your photo.

 
Sectional chart

 
Airport distance calculator
Flying to Richwood Municipal Airport? Find the distance to fly.

From to 3I4

Sunrise and sunset
Times for 05-Dec-2021
 Local
(UTC-5)
 Zulu
(UTC)
Morning civil twilight06:5611:56
Sunrise07:2512:25
Sunset17:0122:01
Evening civil twilight17:3122:31

Current date and time
Zulu (UTC)  06-Dec-2021 02:29:24
Local (UTC-5)  05-Dec-2021 21:29:24
 
METAR
KLWB 
26nm SE 
060215Z AUTO 17003KT 10SM OVC055 08/00 A3013 RMK AO2 T00771001
KBKW 
35nm SW 
060151Z AUTO 15011G21KT 10SM FEW110 09/01 A3006 RMK AO2 SLP183 T00890011 TSNO
KCRW 
45nm W 
060154Z 18011G15KT 10SM CLR 14/04 A2995 RMK AO2 SLP141 T01440044
KW22 
48nm N 
060215Z AUTO 18010G19KT 10SM BKN120 12/01 A2996 RMK AO2
TAF
KLWB 
26nm SE 
051725Z 0518/0618 20008KT P6SM BKN035 OVC100 FM052000 10005KT P6SM OVC035 FM060900 20004KT P6SM OVC025 FM061200 VRB02KT 4SM -RA BR SCT007 BKN013
NOTAMs
Click for the latest NOTAMs
NOTAMs are issued by the DoD/FAA and will open in a separate window not controlled by AirNav.

 

 
 

Would you like to see your business listed on this page?

 If your business provides an interesting product or service to pilots, flight crews, aircraft, or users of the Richwood Municipal Airport, you should consider listing it here.  To start the listing process, click on the button below
 
Add a business
 

Other Pages about Richwood Municipal Airport

Update a link
 
Copyright © AirNav, LLC. All rights reserved. Privacy Policy  Contact